Time;durP1;ratioP1;P1;durP2;ratioP2;P2;SDS_P1;SDS_P2;PMS_P1;PMS_P2;Temp;Humidity;BMP_temperature;BMP_pressure;BME280_temperature;BME280_humidity;BME280_pressure;Samples;Min_cycle;Max_cycle;Signal;HPM_P1;HPM_P2
2021/01/09 00:04:49;;;;;;;7.78;6.70;;;26.10;99.90;;;;;;5093598;28;20019;-60
2021/01/09 00:07:16;;;;;;;6.80;6.50;;;26.20;99.90;;;;;;5095505;28;20027;-61
2021/01/09 00:09:43;;;;;;;7.10;6.82;;;26.50;99.90;;;;;;5097376;28;20081;-62
2021/01/09 00:12:14;;;;;;;6.90;6.50;;;26.50;99.90;;;;;;5097509;28;20059;-61
2021/01/09 00:14:41;;;;;;;6.75;6.35;;;26.50;99.90;;;;;;5097493;28;20024;-61
2021/01/09 00:17:09;;;;;;;7.75;7.30;;;26.30;99.90;;;;;;5097440;28;20024;-61
2021/01/09 00:19:36;;;;;;;7.45;7.10;;;26.30;99.90;;;;;;5097149;28;20379;-61
2021/01/09 00:22:04;;;;;;;6.65;6.28;;;26.40;99.90;;;;;;5097236;28;20035;-62
2021/01/09 00:24:31;;;;;;;6.65;6.35;;;26.50;99.90;;;;;;5097740;28;20016;-62
2021/01/09 00:26:59;;;;;;;7.57;7.13;;;26.70;99.90;;;;;;5097190;28;20039;-62
2021/01/09 00:29:26;;;;;;;8.10;7.70;;;26.80;99.90;;;;;;5097191;28;20358;-61
2021/01/09 00:31:54;;;;;;;8.20;7.80;;;26.50;99.90;;;;;;5097206;28;20062;-61
2021/01/09 00:34:22;;;;;;;7.80;7.30;;;26.40;99.90;;;;;;5097314;28;20047;-61
2021/01/09 00:36:50;;;;;;;7.60;7.30;;;26.60;99.90;;;;;;5096942;28;20438;-61
2021/01/09 00:39:17;;;;;;;7.40;7.00;;;26.50;99.90;;;;;;5096963;28;20012;-60
2021/01/09 00:41:44;;;;;;;7.30;6.95;;;26.30;99.90;;;;;;5095553;28;20032;-60
2021/01/09 00:44:12;;;;;;;7.25;6.85;;;26.40;99.90;;;;;;5096781;28;20106;-61
2021/01/09 00:46:39;;;;;;;6.55;6.30;;;26.60;99.90;;;;;;5096669;28;20479;-60
2021/01/09 00:49:06;;;;;;;6.45;6.15;;;26.60;99.90;;;;;;5096440;28;20035;-61
2021/01/09 00:51:34;;;;;;;6.63;6.32;;;26.70;99.90;;;;;;5096478;28;20046;-60
2021/01/09 00:54:01;;;;;;;6.80;6.28;;;26.40;99.90;;;;;;5096593;28;20468;-61
2021/01/09 00:56:28;;;;;;;6.25;6.00;;;26.50;99.90;;;;;;5095198;28;20020;-63
2021/01/09 00:58:56;;;;;;;7.85;7.15;;;26.50;99.90;;;;;;5096516;28;20028;-62
2021/01/09 01:01:23;;;;;;;6.88;6.57;;;26.60;99.90;;;;;;5096448;28;20032;-59
2021/01/09 01:03:50;;;;;;;7.10;6.60;;;26.70;99.90;;;;;;5096467;28;20541;-59
2021/01/09 01:06:26;;;;;;;6.85;6.55;;;26.60;99.90;;;;;;5097237;28;20491;-60
2021/01/09 01:08:54;;;;;;;6.25;6.05;;;26.60;99.90;;;;;;5096546;28;20476;-61
2021/01/09 01:11:27;;;;;;;7.05;6.75;;;26.60;99.90;;;;;;5096356;28;20031;-60
2021/01/09 01:13:56;;;;;;;7.35;7.03;;;26.50;99.90;;;;;;5096366;28;20020;-60
2021/01/09 01:16:24;;;;;;;6.50;6.30;;;26.80;99.90;;;;;;5096414;28;20020;-60
2021/01/09 01:18:52;;;;;;;6.97;6.68;;;26.90;99.90;;;;;;5095629;28;20095;-60
2021/01/09 01:21:19;;;;;;;6.70;6.40;;;27.00;99.90;;;;;;5096135;28;20026;-61
2021/01/09 01:23:47;;;;;;;7.45;7.05;;;27.00;99.90;;;;;;5096146;28;20030;-60
2021/01/09 01:26:16;;;;;;;7.82;7.40;;;27.10;99.90;;;;;;5096379;28;20498;-61
2021/01/09 01:28:43;;;;;;;6.70;6.38;;;27.10;99.90;;;;;;5096055;28;20085;-62
2021/01/09 01:31:11;;;;;;;6.43;6.22;;;27.30;99.90;;;;;;5096027;28;20109;-62
2021/01/09 01:33:39;;;;;;;7.10;6.80;;;27.60;99.90;;;;;;5095930;28;20035;-61
2021/01/09 01:36:11;;;;;;;7.28;6.90;;;27.60;99.90;;;;;;5095931;28;20024;-60
2021/01/09 01:38:39;;;;;;;7.03;6.60;;;27.60;99.90;;;;;;5095917;28;20468;-61
2021/01/09 01:41:10;;;;;;;6.75;6.45;;;27.50;99.90;;;;;;5095817;28;20085;-61
2021/01/09 01:43:38;;;;;;;6.80;6.60;;;27.40;99.90;;;;;;5095765;28;20020;-61
2021/01/09 01:46:07;;;;;;;6.50;6.30;;;27.50;99.90;;;;;;5095867;28;20043;-61
2021/01/09 01:48:36;;;;;;;6.85;6.55;;;27.60;99.90;;;;;;5094513;28;20085;-61
2021/01/09 01:51:04;;;;;;;7.40;6.90;;;27.60;99.90;;;;;;5093790;28;20097;-61
2021/01/09 01:53:33;;;;;;;7.40;7.00;;;27.80;99.90;;;;;;5095334;28;20070;-62
2021/01/09 01:56:00;;;;;;;7.88;7.00;;;27.90;99.90;;;;;;5095372;28;20087;-60
2021/01/09 01:58:27;;;;;;;7.72;7.18;;;28.00;99.90;;;;;;5095486;28;20102;-60
2021/01/09 02:00:55;;;;;;;6.95;6.55;;;28.00;99.90;;;;;;5095512;28;20020;-59
2021/01/09 02:03:23;;;;;;;7.40;7.00;;;28.00;99.90;;;;;;5095353;28;20027;-62
2021/01/09 02:06:10;;;;;;;7.28;6.78;;;27.90;99.90;;;;;;5095491;28;20024;-62
2021/01/09 02:09:10;;;;;;;7.22;6.82;;;28.00;99.90;;;;;;5094761;28;20057;-60
2021/01/09 02:11:46;;;;;;;6.53;6.07;;;28.00;99.90;;;;;;5094941;28;20503;-60
2021/01/09 02:14:43;;;;;;;5.90;5.60;;;27.80;99.90;;;;;;5095326;28;20016;-60
2021/01/09 02:17:11;;;;;;;5.85;5.53;;;27.90;99.90;;;;;;5094713;28;20032;-60
2021/01/09 02:19:44;;;;;;;6.32;6.03;;;27.90;99.90;;;;;;5095002;28;20012;-60
2021/01/09 02:22:16;;;;;;;6.47;6.05;;;27.90;99.90;;;;;;5095069;28;20150;-60
2021/01/09 02:24:45;;;;;;;6.82;6.47;;;27.90;99.90;;;;;;5095325;28;20024;-59
2021/01/09 02:27:12;;;;;;;6.75;6.45;;;27.80;99.90;;;;;;5094868;28;20149;-60
2021/01/09 02:29:46;;;;;;;7.10;6.60;;;28.00;99.90;;;;;;5094232;28;20113;-60
2021/01/09 02:32:18;;;;;;;6.88;6.45;;;28.00;99.60;;;;;;5093693;28;20081;-59
2021/01/09 02:34:53;;;;;;;6.22;6.03;;;27.90;99.90;;;;;;5095049;28;20023;-61
2021/01/09 02:37:21;;;;;;;6.70;6.28;;;27.80;99.90;;;;;;5094794;28;20103;-62
2021/01/09 02:39:50;;;;;;;6.43;6.13;;;27.80;99.90;;;;;;5094686;28;20487;-58
2021/01/09 02:42:21;;;;;;;7.20;6.80;;;27.80;99.90;;;;;;5094412;28;20438;-60
2021/01/09 02:44:51;;;;;;;7.07;6.78;;;28.00;99.90;;;;;;5094734;28;20109;-59
2021/01/09 02:47:19;;;;;;;6.78;6.47;;;28.20;99.00;;;;;;5093384;28;20023;-59
2021/01/09 02:49:46;;;;;;;6.65;6.28;;;28.00;99.60;;;;;;5094242;28;20063;-61
2021/01/09 02:52:13;;;;;;;6.35;6.05;;;27.90;99.90;;;;;;5094362;28;20031;-60
2021/01/09 02:54:41;;;;;;;6.57;6.28;;;27.90;99.90;;;;;;5094430;28;20024;-59
2021/01/09 02:57:08;;;;;;;6.93;6.43;;;28.00;99.90;;;;;;5094498;28;20044;-59
2021/01/09 02:59:35;;;;;;;6.88;6.38;;;28.10;99.90;;;;;;5092758;28;20422;-62
2021/01/09 03:02:03;;;;;;;6.35;6.05;;;28.10;99.70;;;;;;5094175;28;20024;-63
2021/01/09 03:04:30;;;;;;;6.10;5.90;;;28.10;99.60;;;;;;5094231;28;20020;-59
2021/01/09 03:06:57;;;;;;;6.57;6.07;;;27.90;99.90;;;;;;5094111;28;20380;-61
2021/01/09 03:09:26;;;;;;;5.82;5.45;;;27.90;99.90;;;;;;5093950;28;20059;-60
2021/01/09 03:11:54;;;;;;;5.82;5.32;;;28.00;98.70;;;;;;5093852;28;20024;-61
2021/01/09 03:14:22;;;;;;;6.50;6.20;;;28.10;99.80;;;;;;5094021;28;20055;-60
2021/01/09 03:16:49;;;;;;;6.22;5.93;;;28.10;99.60;;;;;;5093726;28;20023;-61
2021/01/09 03:19:17;;;;;;;5.60;5.03;;;28.20;99.50;;;;;;5093656;28;20104;-60
2021/01/09 03:21:44;;;;;;;6.70;6.40;;;28.30;99.90;;;;;;5094323;28;20111;-61
2021/01/09 03:24:11;;;;;;;6.38;6.07;;;28.30;99.70;;;;;;5092685;28;20024;-59
2021/01/09 03:26:39;;;;;;;7.53;7.13;;;28.40;98.80;;;;;;5092426;28;20027;-61
2021/01/09 03:29:06;;;;;;;7.90;7.60;;;28.30;98.70;;;;;;5093840;28;20036;-60
2021/01/09 03:31:33;;;;;;;7.82;7.50;;;28.20;98.50;;;;;;5092431;28;20024;-60
2021/01/09 03:34:01;;;;;;;7.68;7.18;;;28.20;98.40;;;;;;5093579;28;20031;-59
2021/01/09 03:36:28;;;;;;;7.65;7.25;;;28.00;98.90;;;;;;5093683;28;20016;-61
2021/01/09 03:38:56;;;;;;;6.57;6.22;;;28.10;98.90;;;;;;5092454;28;20077;-61
2021/01/09 03:41:23;;;;;;;7.53;7.22;;;28.30;98.20;;;;;;5093069;28;20119;-60
2021/01/09 03:43:50;;;;;;;7.78;7.38;;;28.40;98.80;;;;;;5093861;28;20032;-61
2021/01/09 03:46:17;;;;;;;7.80;7.40;;;28.50;98.80;;;;;;5093674;28;20024;-61
2021/01/09 03:48:45;;;;;;;7.00;6.60;;;28.60;98.40;;;;;;5093466;28;20103;-60
2021/01/09 03:51:12;;;;;;;7.28;6.97;;;28.30;98.10;;;;;;5093252;28;20089;-60
2021/01/09 03:53:41;;;;;;;9.57;7.95;;;28.00;98.30;;;;;;5093339;28;20067;-60
2021/01/09 03:56:09;;;;;;;6.25;5.88;;;27.80;99.10;;;;;;5093328;28;20070;-62
2021/01/09 03:58:36;;;;;;;6.80;6.50;;;28.00;98.90;;;;;;5093385;28;20065;-60
2021/01/09 04:01:03;;;;;;;7.63;7.32;;;27.90;99.30;;;;;;5093380;28;20024;-60
2021/01/09 04:03:31;;;;;;;6.63;6.40;;;27.60;99.10;;;;;;5092087;28;20074;-60
2021/01/09 04:05:58;;;;;;;6.20;5.90;;;27.80;99.70;;;;;;5093774;28;20054;-62
2021/01/09 04:08:25;;;;;;;7.57;7.18;;;27.90;99.20;;;;;;5093662;28;20038;-60
2021/01/09 04:10:53;;;;;;;7.90;7.60;;;28.00;99.70;;;;;;5093262;28;20078;-61
2021/01/09 04:13:20;;;;;;;7.30;6.80;;;28.20;99.50;;;;;;5092188;28;20103;-61
2021/01/09 04:15:47;;;;;;;7.20;6.80;;;28.30;99.10;;;;;;5093268;28;20024;-61
2021/01/09 04:18:15;;;;;;;7.20;6.90;;;28.30;98.40;;;;;;5093370;28;20084;-61
2021/01/09 04:20:42;;;;;;;7.40;7.10;;;28.30;98.10;;;;;;5093304;28;20100;-62
2021/01/09 04:23:09;;;;;;;7.60;7.10;;;28.20;98.10;;;;;;5091943;28;20028;-60
2021/01/09 04:25:37;;;;;;;7.57;7.07;;;28.20;98.60;;;;;;5093108;28;20025;-60
2021/01/09 04:28:04;;;;;;;7.78;7.03;;;28.10;99.00;;;;;;5093138;28;20039;-60
2021/01/09 04:30:31;;;;;;;6.90;6.60;;;28.40;99.00;;;;;;5093273;28;20468;-61
2021/01/09 04:32:59;;;;;;;6.20;5.90;;;28.70;98.50;;;;;;5093242;28;20027;-60
2021/01/09 04:35:26;;;;;;;6.70;6.40;;;28.60;98.70;;;;;;5093081;28;20012;-60
2021/01/09 04:37:54;;;;;;;7.32;7.07;;;28.60;98.60;;;;;;5093185;28;20021;-60
2021/01/09 04:40:21;;;;;;;6.93;6.63;;;28.60;98.60;;;;;;5092948;28;20081;-59
2021/01/09 04:42:48;;;;;;;7.63;7.13;;;28.50;98.90;;;;;;5093037;28;20024;-59
2021/01/09 04:45:16;;;;;;;7.70;7.20;;;28.40;98.60;;;;;;5092984;28;20047;-60
2021/01/09 04:47:47;;;;;;;7.25;7.00;;;28.20;98.80;;;;;;5093233;28;20019;-60
2021/01/09 04:50:15;;;;;;;7.32;6.90;;;28.30;99.00;;;;;;5091443;28;20038;-59
2021/01/09 04:52:43;;;;;;;7.20;6.80;;;28.40;98.00;;;;;;5093357;28;20050;-60
2021/01/09 04:55:11;;;;;;;6.90;6.50;;;27.70;99.10;;;;;;5096292;28;20017;-62
2021/01/09 04:57:39;;;;;;;7.38;6.97;;;28.00;99.60;;;;;;5096981;28;20016;-60
2021/01/09 05:00:07;;;;;;;7.20;6.63;;;28.40;99.00;;;;;;5096606;28;20016;-60
2021/01/09 05:02:38;;;;;;;6.97;6.57;;;28.60;98.90;;;;;;5096561;28;20024;-60
2021/01/09 05:05:06;;;;;;;7.13;6.75;;;28.90;98.80;;;;;;5096744;28;20016;-60
2021/01/09 05:07:34;;;;;;;7.00;6.70;;;29.00;98.10;;;;;;5096432;28;20020;-60
2021/01/09 05:10:05;;;;;;;7.05;6.65;;;28.40;98.40;;;;;;5096373;28;20435;-59
2021/01/09 05:12:36;;;;;;;7.90;7.50;;;28.50;98.70;;;;;;5096304;28;20089;-60
2021/01/09 05:15:05;;;;;;;7.63;7.15;;;28.50;98.60;;;;;;5096251;28;20062;-60
2021/01/09 05:17:38;;;;;;;7.40;6.95;;;28.60;98.70;;;;;;5096336;28;20020;-61
2021/01/09 05:20:07;;;;;;;7.35;6.85;;;28.70;98.50;;;;;;5096486;28;20046;-61
2021/01/09 05:22:39;;;;;;;8.23;7.72;;;28.60;98.70;;;;;;5096286;28;20020;-61
2021/01/09 05:25:07;;;;;;;7.80;7.50;;;28.60;98.80;;;;;;5096193;28;20020;-58
2021/01/09 05:27:36;;;;;;;6.88;6.57;;;28.50;98.50;;;;;;5096052;28;20125;-62
2021/01/09 05:30:05;;;;;;;6.93;6.53;;;28.30;98.80;;;;;;5096027;28;20024;-59
2021/01/09 05:32:32;;;;;;;7.13;6.82;;;28.20;98.60;;;;;;5094660;28;20032;-58
2021/01/09 05:35:00;;;;;;;7.05;6.75;;;28.10;99.10;;;;;;5095973;28;20024;-60
2021/01/09 05:37:28;;;;;;;7.03;6.68;;;28.10;99.10;;;;;;5095799;28;20376;-60
2021/01/09 05:39:57;;;;;;;6.60;6.30;;;28.30;99.10;;;;;;5094662;28;20028;-60
2021/01/09 05:42:27;;;;;;;6.80;6.50;;;28.60;98.80;;;;;;5095821;28;20027;-61
2021/01/09 05:44:56;;;;;;;6.82;6.22;;;28.70;98.60;;;;;;5095751;28;20020;-61
2021/01/09 05:47:26;;;;;;;6.80;6.40;;;28.70;98.40;;;;;;5095621;28;20077;-61
2021/01/09 05:49:58;;;;;;;7.20;6.70;;;28.90;97.90;;;;;;5095207;28;20051;-61
2021/01/09 05:52:27;;;;;;;6.80;6.45;;;29.00;98.30;;;;;;5095611;28;20043;-60
2021/01/09 05:54:58;;;;;;;6.88;6.50;;;29.10;98.20;;;;;;5095637;28;20020;-59
2021/01/09 05:57:30;;;;;;;7.38;6.88;;;29.40;98.00;;;;;;5095619;28;20027;-60
2021/01/09 05:59:59;;;;;;;6.35;6.03;;;29.40;97.40;;;;;;5095495;28;20012;-60
2021/01/09 06:02:27;;;;;;;6.00;5.70;;;29.40;97.10;;;;;;5094151;28;20028;-60
2021/01/09 06:05:01;;;;;;;6.57;6.28;;;29.50;96.90;;;;;;5094913;28;20280;-61
2021/01/09 06:07:37;;;;;;;6.90;6.60;;;29.40;97.30;;;;;;5095142;28;20494;-61
2021/01/09 06:10:09;;;;;;;7.50;7.10;;;29.30;96.30;;;;;;5095131;28;20126;-61
2021/01/09 06:13:02;;;;;;;7.63;7.18;;;29.50;96.80;;;;;;5095135;28;20545;-61
2021/01/09 06:15:32;;;;;;;8.40;7.90;;;29.70;96.40;;;;;;5095321;28;20016;-61
2021/01/09 06:18:03;;;;;;;8.15;7.75;;;29.90;96.60;;;;;;5095268;28;20077;-61
2021/01/09 06:20:30;;;;;;;7.68;7.28;;;29.80;95.80;;;;;;5095028;28;20020;-60
2021/01/09 06:23:00;;;;;;;7.70;7.40;;;29.50;96.00;;;;;;5094882;28;20107;-60
2021/01/09 06:25:29;;;;;;;10.17;9.10;;;29.50;96.00;;;;;;5094702;28;20024;-60
2021/01/09 06:28:04;;;;;;;8.45;7.75;;;29.50;96.20;;;;;;5094588;28;20047;-61
2021/01/09 06:30:37;;;;;;;8.55;7.95;;;29.60;96.10;;;;;;5094691;28;20032;-61
2021/01/09 06:33:14;;;;;;;7.70;7.18;;;29.70;96.90;;;;;;5095024;28;20484;-59
2021/01/09 06:35:46;;;;;;;7.38;7.07;;;30.00;96.40;;;;;;5095061;28;20099;-60
2021/01/09 06:38:13;;;;;;;6.90;6.50;;;30.10;96.20;;;;;;5094614;28;20017;-59
2021/01/09 06:40:41;;;;;;;7.43;7.03;;;30.10;96.60;;;;;;5094522;28;20076;-58
2021/01/09 06:43:09;;;;;;;7.07;6.55;;;30.20;96.40;;;;;;5094700;28;20017;-59
2021/01/09 06:45:36;;;;;;;6.93;6.63;;;30.30;95.70;;;;;;5094219;28;20069;-60
2021/01/09 06:48:06;;;;;;;7.25;6.95;;;30.30;95.80;;;;;;5094180;28;20055;-59
2021/01/09 06:50:34;;;;;;;7.65;7.30;;;30.10;95.90;;;;;;5094529;28;20104;-59
2021/01/09 06:53:02;;;;;;;7.57;7.28;;;29.60;95.60;;;;;;5094471;28;20097;-59
2021/01/09 06:55:39;;;;;;;8.20;7.80;;;29.50;96.20;;;;;;5094377;28;20016;-59
2021/01/09 06:58:14;;;;;;;8.88;8.48;;;29.50;96.50;;;;;;5094799;28;20391;-59
2021/01/09 07:00:41;;;;;;;8.77;8.27;;;29.50;96.60;;;;;;5094187;28;20415;-59
2021/01/09 07:03:18;;;;;;;8.32;7.82;;;29.60;96.50;;;;;;5092817;28;20031;-59
2021/01/09 07:05:52;;;;;;;6.10;5.75;;;29.90;96.10;;;;;;5094337;28;20585;-59
2021/01/09 07:08:33;;;;;;;6.90;6.50;;;30.10;96.30;;;;;;5094017;28;20051;-59
2021/01/09 07:11:05;;;;;;;8.20;7.80;;;30.10;96.20;;;;;;5093926;28;20115;-59
2021/01/09 07:13:33;;;;;;;8.38;7.90;;;30.10;96.10;;;;;;5094043;28;20023;-59
2021/01/09 07:16:11;;;;;;;8.27;7.90;;;29.90;96.00;;;;;;5093708;28;20039;-59
2021/01/09 07:18:47;;;;;;;8.57;8.10;;;30.20;96.30;;;;;;5094040;28;20026;-59
2021/01/09 07:21:20;;;;;;;9.25;8.75;;;29.90;96.50;;;;;;5094051;28;20024;-59
2021/01/09 07:23:51;;;;;;;8.30;7.80;;;29.40;96.30;;;;;;5094133;28;20016;-59
2021/01/09 07:26:21;;;;;;;7.65;7.25;;;28.70;97.40;;;;;;5093644;28;20116;-59
2021/01/09 07:28:49;;;;;;;7.90;7.50;;;28.00;98.90;;;;;;5092532;28;20419;-62
2021/01/09 07:31:16;;;;;;;8.23;7.78;;;27.50;99.80;;;;;;5093704;28;20024;-59
2021/01/09 07:33:45;;;;;;;7.72;7.35;;;27.10;99.90;;;;;;5093676;28;20023;-59
2021/01/09 07:36:14;;;;;;;8.00;7.60;;;26.90;99.90;;;;;;5093638;28;20464;-59
2021/01/09 07:38:46;;;;;;;8.70;8.20;;;26.50;99.90;;;;;;5092002;28;20020;-59
2021/01/09 07:41:32;;;;;;;8.60;8.10;;;26.40;99.90;;;;;;5093332;28;20039;-59
2021/01/09 07:44:12;;;;;;;8.60;8.00;;;26.20;99.90;;;;;;5093435;28;20054;-59
2021/01/09 07:46:56;;;;;;;8.15;7.70;;;26.00;99.90;;;;;;5093297;28;20035;-59
2021/01/09 07:49:54;;;;;;;9.15;8.55;;;25.80;99.90;;;;;;5093134;28;20107;-59
2021/01/09 07:52:29;;;;;;;9.85;9.30;;;25.50;99.90;;;;;;5093213;28;20032;-59
2021/01/09 07:54:56;;;;;;;9.45;8.95;;;25.30;99.90;;;;;;5093308;28;20077;-59
2021/01/09 07:57:25;;;;;;;8.68;8.27;;;25.30;99.90;;;;;;5093213;28;20025;-59
2021/01/09 07:59:55;;;;;;;8.60;8.00;;;25.40;99.90;;;;;;5093193;28;20016;-59
2021/01/09 08:02:39;;;;;;;9.00;8.40;;;25.40;99.90;;;;;;5093116;28;20028;-58
2021/01/09 08:05:20;;;;;;;9.20;8.80;;;25.10;99.90;;;;;;5093124;28;20036;-61
2021/01/09 08:07:56;;;;;;;8.82;8.40;;;25.20;99.90;;;;;;5093067;28;20032;-58
2021/01/09 08:10:28;;;;;;;9.52;8.93;;;25.30;99.90;;;;;;5093029;28;20024;-59
2021/01/09 08:13:00;;;;;;;8.55;8.15;;;25.80;99.90;;;;;;5093069;28;20024;-59
2021/01/09 08:15:29;;;;;;;9.00;8.40;;;25.70;99.90;;;;;;5093355;28;20047;-59
2021/01/09 08:18:03;;;;;;;9.40;8.80;;;25.30;99.90;;;;;;5093023;28;20020;-59
2021/01/09 08:20:31;;;;;;;8.95;8.55;;;24.80;99.90;;;;;;5091943;28;20020;-59
2021/01/09 08:23:07;;;;;;;10.18;9.38;;;24.40;99.90;;;;;;5093056;28;20024;-59
2021/01/09 08:25:39;;;;;;;9.70;8.90;;;24.10;99.90;;;;;;5093147;28;20372;-58
2021/01/09 08:28:10;;;;;;;9.45;8.85;;;23.70;99.90;;;;;;5094477;28;20056;-58
2021/01/09 08:30:40;;;;;;;9.45;8.80;;;23.40;99.90;;;;;;5096886;28;20329;-58
2021/01/09 08:33:16;;;;;;;8.45;7.97;;;23.10;99.90;;;;;;5097394;28;20020;-58
2021/01/09 08:35:52;;;;;;;8.65;8.10;;;23.00;99.90;;;;;;5095469;28;20035;-58
2021/01/09 08:38:28;;;;;;;9.00;8.50;;;22.90;99.90;;;;;;5096723;28;20103;-58
2021/01/09 08:41:03;;;;;;;9.10;8.60;;;22.80;99.90;;;;;;5096796;28;20425;-58
2021/01/09 08:43:30;;;;;;;8.80;8.40;;;22.70;99.90;;;;;;5096629;28;20028;-58
2021/01/09 08:45:58;;;;;;;8.63;8.13;;;22.60;99.90;;;;;;5096553;28;20430;-58
2021/01/09 08:48:27;;;;;;;9.23;8.60;;;22.60;99.90;;;;;;5096566;28;20031;-59
2021/01/09 08:51:15;;;;;;;8.70;8.27;;;22.50;99.90;;;;;;5096216;28;20131;-59
2021/01/09 08:53:57;;;;;;;8.60;8.00;;;22.40;99.90;;;;;;5096470;28;20034;-59
2021/01/09 08:56:29;;;;;;;8.57;7.97;;;22.30;99.90;;;;;;5096574;28;20066;-58
2021/01/09 08:59:03;;;;;;;8.63;8.10;;;22.20;99.90;;;;;;5096456;28;20012;-57
2021/01/09 09:01:39;;;;;;;8.70;8.13;;;22.10;99.90;;;;;;5096347;28;20083;-59
2021/01/09 09:04:09;;;;;;;8.80;8.30;;;22.00;99.90;;;;;;5096447;28;20024;-58
2021/01/09 09:06:42;;;;;;;8.52;8.10;;;22.00;99.90;;;;;;5096389;28;20039;-58
2021/01/09 09:09:16;;;;;;;9.10;8.35;;;21.90;99.90;;;;;;5096365;28;20042;-58
2021/01/09 09:11:51;;;;;;;9.05;8.50;;;21.80;99.90;;;;;;5095210;28;20491;-59
2021/01/09 09:14:19;;;;;;;8.90;8.30;;;21.70;99.90;;;;;;5096249;28;20016;-59
2021/01/09 09:16:46;;;;;;;9.00;8.32;;;21.70;99.90;;;;;;5096134;28;20024;-58
2021/01/09 09:19:15;;;;;;;8.57;8.00;;;21.70;99.90;;;;;;5096063;28;20016;-58
2021/01/09 09:21:45;;;;;;;8.60;8.10;;;21.60;99.90;;;;;;5096019;28;20412;-58
2021/01/09 09:24:14;;;;;;;8.90;8.40;;;21.60;99.90;;;;;;5095036;28;20472;-59
2021/01/09 09:26:42;;;;;;;8.77;8.43;;;21.50;99.90;;;;;;5094605;28;20388;-59
2021/01/09 09:29:13;;;;;;;9.50;8.98;;;21.50;99.90;;;;;;5095877;28;20380;-58
2021/01/09 09:31:44;;;;;;;8.75;8.45;;;21.50;99.90;;;;;;5095657;28;20028;-58
2021/01/09 09:34:14;;;;;;;9.23;8.73;;;21.40;99.90;;;;;;5095834;28;20026;-59
2021/01/09 09:36:53;;;;;;;8.85;8.35;;;21.40;99.90;;;;;;5095715;28;20020;-59
2021/01/09 09:39:27;;;;;;;8.90;8.38;;;21.30;99.90;;;;;;5095061;28;20387;-58
2021/01/09 09:42:00;;;;;;;9.35;8.70;;;21.30;99.90;;;;;;5095729;28;20176;-59
2021/01/09 09:44:44;;;;;;;8.88;8.48;;;21.30;99.90;;;;;;5095507;28;20027;-59
2021/01/09 09:47:30;;;;;;;8.63;8.23;;;21.30;99.90;;;;;;5094421;28;20031;-58
2021/01/09 09:50:01;;;;;;;9.40;8.85;;;21.20;99.90;;;;;;5095275;28;20048;-58
2021/01/09 09:52:28;;;;;;;9.75;9.05;;;21.20;99.90;;;;;;5095442;28;20024;-58
2021/01/09 09:55:06;;;;;;;9.57;9.05;;;21.10;99.90;;;;;;5095132;28;20091;-58
2021/01/09 09:57:34;;;;;;;9.95;9.35;;;21.10;99.90;;;;;;5095377;28;20020;-58
2021/01/09 10:00:12;;;;;;;9.73;9.20;;;21.10;99.90;;;;;;5095219;28;20024;-59
2021/01/09 10:02:56;;;;;;;9.32;8.93;;;21.00;99.90;;;;;;5095174;28;20032;-59
2021/01/09 10:05:26;;;;;;;9.30;9.00;;;21.00;99.90;;;;;;5095030;28;20031;-59
2021/01/09 10:08:13;;;;;;;;;;;20.90;99.90;;;;;;5095575;28;20353;-59
2021/01/09 10:10:41;;;;;;;9.30;8.80;;;20.90;99.90;;;;;;5094876;28;19961;-58
2021/01/09 10:13:09;;;;;;;9.48;8.90;;;20.90;99.90;;;;;;5095075;28;20053;-58
2021/01/09 10:15:36;;;;;;;9.45;8.93;;;20.90;99.90;;;;;;5093697;28;20027;-59
2021/01/09 10:18:03;;;;;;;9.68;9.07;;;20.80;99.90;;;;;;5094884;28;20044;-59
2021/01/09 10:20:31;;;;;;;9.75;9.32;;;20.80;99.90;;;;;;5094830;28;20468;-58
2021/01/09 10:22:58;;;;;;;9.70;9.15;;;20.80;99.90;;;;;;5094865;28;20028;-58
2021/01/09 10:25:25;;;;;;;9.27;8.80;;;20.70;99.90;;;;;;5094801;28;20020;-59
2021/01/09 10:27:53;;;;;;;10.20;9.57;;;20.70;99.90;;;;;;5094765;28;20016;-58
2021/01/09 10:30:20;;;;;;;10.40;9.80;;;20.60;99.90;;;;;;5094523;28;20024;-59
2021/01/09 10:32:48;;;;;;;10.85;9.82;;;20.60;99.90;;;;;;5094565;28;20097;-59
2021/01/09 10:35:15;;;;;;;10.60;10.00;;;20.60;99.90;;;;;;5094476;28;20091;-59
2021/01/09 10:37:42;;;;;;;10.38;9.73;;;20.60;99.90;;;;;;5094786;28;20008;-59
2021/01/09 10:40:10;;;;;;;10.52;9.60;;;20.50;99.90;;;;;;5094531;28;20050;-58
2021/01/09 10:42:37;;;;;;;10.93;10.32;;;20.50;99.90;;;;;;5094490;28;20024;-59
2021/01/09 10:45:05;;;;;;;10.48;9.93;;;20.50;99.90;;;;;;5094389;28;20020;-58
2021/01/09 10:47:33;;;;;;;11.05;10.18;;;20.40;99.90;;;;;;5094677;28;20410;-58
2021/01/09 10:50:01;;;;;;;10.65;10.00;;;20.40;99.90;;;;;;5093957;28;20052;-58
2021/01/09 10:52:28;;;;;;;10.77;10.10;;;20.30;99.90;;;;;;5093302;28;20043;-58
2021/01/09 10:54:56;;;;;;;10.40;9.80;;;20.30;99.90;;;;;;5094104;28;20417;-58
2021/01/09 10:57:23;;;;;;;10.32;9.73;;;20.20;99.90;;;;;;5094324;28;20346;-58
2021/01/09 10:59:50;;;;;;;10.45;9.80;;;20.20;99.90;;;;;;5094075;28;20020;-59
2021/01/09 11:02:18;;;;;;;9.90;9.45;;;20.10;99.90;;;;;;5094019;28;20074;-58
2021/01/09 11:04:45;;;;;;;10.35;9.50;;;20.10;99.90;;;;;;5094015;28;20545;-58
2021/01/09 11:07:12;;;;;;;9.90;9.40;;;20.00;99.90;;;;;;5094023;28;20073;-58
2021/01/09 11:09:40;;;;;;;9.98;9.30;;;20.00;99.90;;;;;;5093934;28;20077;-58
2021/01/09 11:12:07;;;;;;;10.10;9.60;;;20.00;99.90;;;;;;5093869;28;20055;-59
2021/01/09 11:14:35;;;;;;;10.65;10.02;;;20.00;99.90;;;;;;5094052;28;20016;-58
2021/01/09 11:17:02;;;;;;;10.77;10.18;;;20.00;99.90;;;;;;5093905;28;20020;-59
2021/01/09 11:19:29;;;;;;;11.02;10.20;;;20.00;99.90;;;;;;5092344;28;20139;-58
2021/01/09 11:22:03;;;;;;;10.40;9.80;;;20.00;99.90;;;;;;5093679;28;20077;-58
2021/01/09 11:24:32;;;;;;;10.35;9.70;;;20.00;99.90;;;;;;5093789;28;20028;-58
2021/01/09 11:27:08;;;;;;;10.07;9.68;;;20.00;99.90;;;;;;5093706;28;20503;-58
2021/01/09 11:29:36;;;;;;;9.63;9.23;;;20.00;99.90;;;;;;5093746;28;20020;-57
2021/01/09 11:32:05;;;;;;;9.80;9.20;;;19.90;99.90;;;;;;5093546;28;20032;-58
2021/01/09 11:34:33;;;;;;;9.60;9.13;;;19.90;99.90;;;;;;5093564;28;20028;-58
2021/01/09 11:37:00;;;;;;;10.23;9.55;;;19.80;99.90;;;;;;5093487;28;20482;-58
2021/01/09 11:39:27;;;;;;;9.77;9.27;;;19.80;99.90;;;;;;5093439;28;20103;-58
2021/01/09 11:42:04;;;;;;;9.85;9.35;;;19.80;99.90;;;;;;5093762;28;20020;-58
2021/01/09 11:44:31;;;;;;;9.73;9.32;;;19.80;99.90;;;;;;5093407;28;20024;-59
2021/01/09 11:46:59;;;;;;;10.27;9.77;;;19.70;99.90;;;;;;5093434;28;20472;-58
2021/01/09 11:49:27;;;;;;;9.93;9.43;;;19.70;99.90;;;;;;5093265;28;20024;-58
2021/01/09 11:51:54;;;;;;;10.38;9.90;;;19.60;99.90;;;;;;5093308;28;20085;-58
2021/01/09 11:54:22;;;;;;;11.02;10.25;;;19.50;99.90;;;;;;5093318;28;20047;-57
2021/01/09 11:56:53;;;;;;;10.27;9.88;;;19.50;99.90;;;;;;5093273;28;20476;-58
2021/01/09 11:59:21;;;;;;;10.20;9.80;;;19.50;99.90;;;;;;5093411;28;20024;-58
2021/01/09 12:01:48;;;;;;;10.18;9.70;;;19.50;99.90;;;;;;5093276;28;20035;-58
2021/01/09 12:04:15;;;;;;;9.52;9.13;;;19.40;99.90;;;;;;5093084;28;20027;-58
2021/01/09 12:06:42;;;;;;;9.77;9.10;;;19.40;99.90;;;;;;5093177;28;20074;-58
2021/01/09 12:09:10;;;;;;;9.73;9.20;;;19.40;99.90;;;;;;5093158;28;20035;-59
2021/01/09 12:11:37;;;;;;;9.65;9.13;;;19.40;99.90;;;;;;5093117;28;20028;-59
2021/01/09 12:14:06;;;;;;;9.65;9.10;;;19.40;99.90;;;;;;5093109;28;20473;-58
2021/01/09 12:16:34;;;;;;;9.80;9.30;;;19.30;99.90;;;;;;5093030;28;20428;-58
2021/01/09 12:19:02;;;;;;;9.50;9.00;;;19.30;99.90;;;;;;5093157;28;20044;-57
2021/01/09 12:21:29;;;;;;;10.32;9.82;;;19.30;99.90;;;;;;5093028;28;20028;-58
2021/01/09 12:23:58;;;;;;;9.80;9.30;;;19.30;99.90;;;;;;5093066;28;20427;-58
2021/01/09 12:26:26;;;;;;;10.65;10.13;;;19.30;99.90;;;;;;5092998;28;20104;-58
2021/01/09 12:28:53;;;;;;;10.50;10.00;;;19.30;99.90;;;;;;5092946;28;20041;-59
2021/01/09 12:31:32;;;;;;;10.38;9.88;;;19.20;99.90;;;;;;5092862;28;20035;-57
2021/01/09 12:33:59;;;;;;;10.40;9.90;;;19.30;99.90;;;;;;5092982;28;20509;-58
2021/01/09 12:36:26;;;;;;;10.57;9.98;;;19.20;99.90;;;;;;5092879;28;20016;-58
2021/01/09 12:38:54;;;;;;;10.50;9.95;;;19.20;99.90;;;;;;5092987;28;20391;-58
2021/01/09 12:41:31;;;;;;;10.63;10.13;;;19.20;99.90;;;;;;5092896;28;20032;-58
2021/01/09 12:43:58;;;;;;;10.40;9.90;;;19.10;99.90;;;;;;5092886;28;20047;-58
2021/01/09 12:46:26;;;;;;;10.75;10.20;;;19.10;99.90;;;;;;5092796;28;20028;-58
2021/01/09 12:48:53;;;;;;;10.80;10.20;;;19.10;99.90;;;;;;5092860;28;20031;-58
2021/01/09 12:51:23;;;;;;;10.48;9.85;;;19.10;99.90;;;;;;5092397;28;20044;-58
2021/01/09 12:53:50;;;;;;;10.55;9.95;;;19.10;99.90;;;;;;5092797;28;20023;-58
2021/01/09 12:56:18;;;;;;;10.48;9.90;;;19.10;99.90;;;;;;5092628;28;20020;-59
2021/01/09 12:58:45;;;;;;;10.18;9.77;;;19.00;99.90;;;;;;5092697;28;20031;-58
2021/01/09 13:01:12;;;;;;;10.80;10.10;;;19.00;99.90;;;;;;5092559;28;20107;-58
2021/01/09 13:03:40;;;;;;;10.38;9.98;;;19.00;99.90;;;;;;5092808;28;20452;-58